sensor_id;sensor_type;location;lat;lon;timestamp;pressure;altitude;pressure_sealevel;temperature;humidity
58018;BME280;43810;50.860;19.226;2024-02-26T00:01:23;97574.47;;;2.69;100.00
58018;BME280;43810;50.860;19.226;2024-02-26T00:03:56;97577.38;;;2.99;100.00
58018;BME280;43810;50.860;19.226;2024-02-26T00:06:25;97578.25;;;3.25;100.00
58018;BME280;43810;50.860;19.226;2024-02-26T00:08:50;97581.56;;;3.48;100.00
58018;BME280;43810;50.860;19.226;2024-02-26T00:11:16;97579.88;;;3.61;100.00
58018;BME280;43810;50.860;19.226;2024-02-26T00:13:42;97577.88;;;3.58;100.00
58018;BME280;43810;50.860;19.226;2024-02-26T00:16:08;97583.09;;;3.49;100.00
58018;BME280;43810;50.860;19.226;2024-02-26T00:18:33;97581.34;;;3.27;100.00
58018;BME280;43810;50.860;19.226;2024-02-26T00:20:59;97577.88;;;3.09;100.00
58018;BME280;43810;50.860;19.226;2024-02-26T00:23:26;97577.69;;;2.97;100.00
58018;BME280;43810;50.860;19.226;2024-02-26T00:25:53;97581.97;;;2.85;100.00
58018;BME280;43810;50.860;19.226;2024-02-26T00:28:18;97580.97;;;2.72;100.00
58018;BME280;43810;50.860;19.226;2024-02-26T00:30:46;97579.50;;;2.57;100.00
58018;BME280;43810;50.860;19.226;2024-02-26T00:33:11;97581.59;;;2.47;100.00
58018;BME280;43810;50.860;19.226;2024-02-26T00:35:37;97582.63;;;2.37;100.00
58018;BME280;43810;50.860;19.226;2024-02-26T00:38:03;97577.91;;;2.25;100.00
58018;BME280;43810;50.860;19.226;2024-02-26T00:40:29;97580.00;;;2.15;100.00
58018;BME280;43810;50.860;19.226;2024-02-26T00:42:55;97583.03;;;2.08;100.00
58018;BME280;43810;50.860;19.226;2024-02-26T00:45:21;97585.44;;;2.04;100.00
58018;BME280;43810;50.860;19.226;2024-02-26T00:47:47;97576.53;;;2.05;100.00
58018;BME280;43810;50.860;19.226;2024-02-26T00:50:15;97575.63;;;2.10;100.00
58018;BME280;43810;50.860;19.226;2024-02-26T00:52:40;97571.94;;;2.11;100.00
58018;BME280;43810;50.860;19.226;2024-02-26T00:55:07;97575.63;;;2.10;100.00
58018;BME280;43810;50.860;19.226;2024-02-26T00:57:33;97573.91;;;2.05;100.00
58018;BME280;43810;50.860;19.226;2024-02-26T00:59:59;97577.44;;;2.01;100.00
58018;BME280;43810;50.860;19.226;2024-02-26T01:02:26;97574.91;;;1.96;100.00
58018;BME280;43810;50.860;19.226;2024-02-26T01:04:52;97572.13;;;1.92;100.00
58018;BME280;43810;50.860;19.226;2024-02-26T01:07:18;97586.88;;;1.88;100.00
58018;BME280;43810;50.860;19.226;2024-02-26T01:09:44;97578.34;;;1.83;100.00
58018;BME280;43810;50.860;19.226;2024-02-26T01:12:10;97580.00;;;1.79;100.00
58018;BME280;43810;50.860;19.226;2024-02-26T01:14:36;97581.09;;;1.78;100.00
58018;BME280;43810;50.860;19.226;2024-02-26T01:17:01;97582.63;;;1.79;100.00
58018;BME280;43810;50.860;19.226;2024-02-26T01:19:30;97582.03;;;1.82;100.00
58018;BME280;43810;50.860;19.226;2024-02-26T01:21:55;97577.56;;;1.82;100.00
58018;BME280;43810;50.860;19.226;2024-02-26T01:24:21;97572.94;;;1.79;100.00
58018;BME280;43810;50.860;19.226;2024-02-26T01:26:47;97577.69;;;1.77;100.00
58018;BME280;43810;50.860;19.226;2024-02-26T01:29:13;97574.28;;;1.77;100.00
58018;BME280;43810;50.860;19.226;2024-02-26T01:31:38;97584.97;;;1.80;100.00
58018;BME280;43810;50.860;19.226;2024-02-26T01:34:04;97581.25;;;1.81;100.00
58018;BME280;43810;50.860;19.226;2024-02-26T01:36:29;97581.72;;;1.83;100.00
58018;BME280;43810;50.860;19.226;2024-02-26T01:38:55;97573.28;;;1.86;100.00
58018;BME280;43810;50.860;19.226;2024-02-26T01:41:21;97573.78;;;1.88;100.00
58018;BME280;43810;50.860;19.226;2024-02-26T01:43:47;97568.41;;;1.93;100.00
58018;BME280;43810;50.860;19.226;2024-02-26T01:46:14;97572.19;;;2.01;100.00
58018;BME280;43810;50.860;19.226;2024-02-26T01:48:43;97575.16;;;2.08;100.00
58018;BME280;43810;50.860;19.226;2024-02-26T01:51:12;97567.69;;;2.15;100.00
58018;BME280;43810;50.860;19.226;2024-02-26T01:53:40;97574.09;;;2.31;100.00
58018;BME280;43810;50.860;19.226;2024-02-26T01:56:06;97576.69;;;2.54;100.00
58018;BME280;43810;50.860;19.226;2024-02-26T01:58:34;97578.34;;;2.72;100.00
58018;BME280;43810;50.860;19.226;2024-02-26T02:01:01;97565.00;;;2.91;100.00
58018;BME280;43810;50.860;19.226;2024-02-26T02:03:28;97570.16;;;3.04;100.00
58018;BME280;43810;50.860;19.226;2024-02-26T02:05:54;97580.72;;;3.22;100.00
58018;BME280;43810;50.860;19.226;2024-02-26T02:08:21;97578.28;;;3.34;100.00
58018;BME280;43810;50.860;19.226;2024-02-26T02:10:49;97576.44;;;3.43;100.00
58018;BME280;43810;50.860;19.226;2024-02-26T02:13:15;97579.56;;;3.53;100.00
58018;BME280;43810;50.860;19.226;2024-02-26T02:15:41;97577.09;;;3.66;100.00
58018;BME280;43810;50.860;19.226;2024-02-26T02:18:07;97580.84;;;3.73;100.00
58018;BME280;43810;50.860;19.226;2024-02-26T02:20:33;97576.53;;;3.86;100.00
58018;BME280;43810;50.860;19.226;2024-02-26T02:22:59;97586.41;;;3.98;100.00
58018;BME280;43810;50.860;19.226;2024-02-26T02:25:25;97579.47;;;4.10;100.00
58018;BME280;43810;50.860;19.226;2024-02-26T02:27:53;97585.31;;;4.16;100.00
58018;BME280;43810;50.860;19.226;2024-02-26T02:30:21;97579.16;;;4.20;100.00
58018;BME280;43810;50.860;19.226;2024-02-26T02:32:47;97577.59;;;4.19;100.00
58018;BME280;43810;50.860;19.226;2024-02-26T02:35:12;97590.28;;;4.17;100.00
58018;BME280;43810;50.860;19.226;2024-02-26T02:37:38;97578.38;;;4.11;100.00
58018;BME280;43810;50.860;19.226;2024-02-26T02:40:04;97576.66;;;4.15;100.00
58018;BME280;43810;50.860;19.226;2024-02-26T02:42:31;97578.22;;;4.16;100.00
58018;BME280;43810;50.860;19.226;2024-02-26T02:44:56;97580.84;;;4.25;100.00
58018;BME280;43810;50.860;19.226;2024-02-26T02:47:22;97573.41;;;4.36;100.00
58018;BME280;43810;50.860;19.226;2024-02-26T02:49:48;97570.47;;;4.37;100.00
58018;BME280;43810;50.860;19.226;2024-02-26T02:52:14;97571.97;;;4.47;100.00
58018;BME280;43810;50.860;19.226;2024-02-26T02:54:39;97570.13;;;4.56;100.00
58018;BME280;43810;50.860;19.226;2024-02-26T02:57:08;97575.69;;;4.63;100.00
58018;BME280;43810;50.860;19.226;2024-02-26T02:59:34;97570.06;;;4.73;100.00
58018;BME280;43810;50.860;19.226;2024-02-26T03:02:01;97562.03;;;4.78;100.00
58018;BME280;43810;50.860;19.226;2024-02-26T03:04:26;97567.28;;;4.78;100.00
58018;BME280;43810;50.860;19.226;2024-02-26T03:06:52;97570.38;;;4.80;100.00
58018;BME280;43810;50.860;19.226;2024-02-26T03:09:18;97558.94;;;4.76;100.00
58018;BME280;43810;50.860;19.226;2024-02-26T03:11:44;97563.25;;;4.72;100.00
58018;BME280;43810;50.860;19.226;2024-02-26T03:14:09;97563.00;;;4.65;100.00
58018;BME280;43810;50.860;19.226;2024-02-26T03:16:36;97558.97;;;4.59;100.00
58018;BME280;43810;50.860;19.226;2024-02-26T03:19:01;97556.97;;;4.56;100.00
58018;BME280;43810;50.860;19.226;2024-02-26T03:21:28;97554.03;;;4.49;100.00
58018;BME280;43810;50.860;19.226;2024-02-26T03:23:54;97549.72;;;4.44;100.00
58018;BME280;43810;50.860;19.226;2024-02-26T03:26:20;97556.69;;;4.40;100.00
58018;BME280;43810;50.860;19.226;2024-02-26T03:28:47;97556.84;;;4.35;100.00
58018;BME280;43810;50.860;19.226;2024-02-26T03:31:13;97547.44;;;4.34;100.00
58018;BME280;43810;50.860;19.226;2024-02-26T03:33:39;97551.16;;;4.33;100.00
58018;BME280;43810;50.860;19.226;2024-02-26T03:36:05;97539.41;;;4.31;100.00
58018;BME280;43810;50.860;19.226;2024-02-26T03:38:32;97545.56;;;4.26;100.00
58018;BME280;43810;50.860;19.226;2024-02-26T03:40:59;97547.72;;;4.24;100.00
58018;BME280;43810;50.860;19.226;2024-02-26T03:43:24;97547.44;;;4.17;100.00
58018;BME280;43810;50.860;19.226;2024-02-26T03:45:50;97546.22;;;4.06;100.00
58018;BME280;43810;50.860;19.226;2024-02-26T03:48:16;97546.69;;;3.90;100.00
58018;BME280;43810;50.860;19.226;2024-02-26T03:50:42;97547.59;;;3.77;100.00
58018;BME280;43810;50.860;19.226;2024-02-26T03:53:07;97564.44;;;3.50;100.00
58018;BME280;43810;50.860;19.226;2024-02-26T03:55:35;97560.47;;;3.22;100.00
58018;BME280;43810;50.860;19.226;2024-02-26T03:58:00;97552.50;;;2.96;100.00
58018;BME280;43810;50.860;19.226;2024-02-26T04:00:26;97546.44;;;2.78;100.00
58018;BME280;43810;50.860;19.226;2024-02-26T04:02:54;97558.38;;;2.62;100.00
58018;BME280;43810;50.860;19.226;2024-02-26T04:05:20;97544.72;;;2.43;100.00
58018;BME280;43810;50.860;19.226;2024-02-26T04:07:46;97547.84;;;2.23;100.00
58018;BME280;43810;50.860;19.226;2024-02-26T04:10:12;97545.84;;;2.06;100.00
58018;BME280;43810;50.860;19.226;2024-02-26T04:12:42;97554.25;;;1.94;100.00
58018;BME280;43810;50.860;19.226;2024-02-26T04:15:09;97549.81;;;1.81;100.00
58018;BME280;43810;50.860;19.226;2024-02-26T04:17:36;97547.91;;;1.73;100.00
58018;BME280;43810;50.860;19.226;2024-02-26T04:20:03;97548.50;;;1.70;100.00
58018;BME280;43810;50.860;19.226;2024-02-26T04:22:29;97545.28;;;1.73;100.00
58018;BME280;43810;50.860;19.226;2024-02-26T04:24:55;97547.44;;;1.71;100.00
58018;BME280;43810;50.860;19.226;2024-02-26T04:27:20;97544.47;;;1.64;100.00
58018;BME280;43810;50.860;19.226;2024-02-26T04:29:46;97544.88;;;1.57;100.00
58018;BME280;43810;50.860;19.226;2024-02-26T04:32:12;97554.09;;;1.55;100.00
58018;BME280;43810;50.860;19.226;2024-02-26T04:34:38;97556.31;;;1.48;100.00
58018;BME280;43810;50.860;19.226;2024-02-26T04:37:03;97552.63;;;1.35;100.00
58018;BME280;43810;50.860;19.226;2024-02-26T04:39:29;97547.31;;;1.26;100.00
58018;BME280;43810;50.860;19.226;2024-02-26T04:41:55;97551.13;;;1.20;100.00
58018;BME280;43810;50.860;19.226;2024-02-26T04:44:21;97536.41;;;1.11;100.00
58018;BME280;43810;50.860;19.226;2024-02-26T04:46:46;97551.81;;;0.98;100.00
58018;BME280;43810;50.860;19.226;2024-02-26T04:49:12;97547.84;;;0.87;100.00
58018;BME280;43810;50.860;19.226;2024-02-26T04:51:37;97542.13;;;0.85;100.00
58018;BME280;43810;50.860;19.226;2024-02-26T04:54:03;97536.41;;;0.83;100.00
58018;BME280;43810;50.860;19.226;2024-02-26T04:56:29;97546.56;;;0.85;100.00
58018;BME280;43810;50.860;19.226;2024-02-26T04:58:55;97548.78;;;0.78;100.00
58018;BME280;43810;50.860;19.226;2024-02-26T05:01:20;97543.94;;;0.71;100.00
58018;BME280;43810;50.860;19.226;2024-02-26T05:03:46;97542.84;;;0.58;100.00
58018;BME280;43810;50.860;19.226;2024-02-26T05:06:12;97544.88;;;0.48;100.00
58018;BME280;43810;50.860;19.226;2024-02-26T05:08:38;97556.84;;;0.35;100.00
58018;BME280;43810;50.860;19.226;2024-02-26T05:11:04;97551.22;;;0.28;100.00
58018;BME280;43810;50.860;19.226;2024-02-26T05:13:30;97549.22;;;0.20;100.00
58018;BME280;43810;50.860;19.226;2024-02-26T05:15:56;97552.00;;;0.10;100.00
58018;BME280;43810;50.860;19.226;2024-02-26T05:18:22;97563.66;;;-0.01;100.00
58018;BME280;43810;50.860;19.226;2024-02-26T05:20:47;97546.81;;;-0.09;100.00
58018;BME280;43810;50.860;19.226;2024-02-26T05:23:13;97563.91;;;-0.17;100.00
58018;BME280;43810;50.860;19.226;2024-02-26T05:25:39;97569.19;;;-0.22;100.00
58018;BME280;43810;50.860;19.226;2024-02-26T05:28:05;97560.38;;;-0.26;100.00
58018;BME280;43810;50.860;19.226;2024-02-26T05:30:31;97560.94;;;-0.29;100.00
58018;BME280;43810;50.860;19.226;2024-02-26T05:32:57;97569.88;;;-0.35;100.00
58018;BME280;43810;50.860;19.226;2024-02-26T05:35:22;97567.06;;;-0.38;100.00
58018;BME280;43810;50.860;19.226;2024-02-26T05:37:48;97567.34;;;-0.40;100.00
58018;BME280;43810;50.860;19.226;2024-02-26T05:40:14;97571.59;;;-0.44;100.00
58018;BME280;43810;50.860;19.226;2024-02-26T05:42:40;97573.69;;;-0.46;100.00
58018;BME280;43810;50.860;19.226;2024-02-26T05:45:06;97580.47;;;-0.45;100.00
58018;BME280;43810;50.860;19.226;2024-02-26T05:47:33;97580.47;;;-0.45;100.00
58018;BME280;43810;50.860;19.226;2024-02-26T05:49:58;97578.34;;;-0.43;100.00
58018;BME280;43810;50.860;19.226;2024-02-26T05:52:27;97576.75;;;-0.39;100.00
58018;BME280;43810;50.860;19.226;2024-02-26T05:54:53;97578.50;;;-0.34;100.00
58018;BME280;43810;50.860;19.226;2024-02-26T05:57:19;97591.13;;;-0.23;100.00
58018;BME280;43810;50.860;19.226;2024-02-26T05:59:45;97590.44;;;-0.10;100.00
58018;BME280;43810;50.860;19.226;2024-02-26T06:02:11;97590.78;;;0.03;100.00
58018;BME280;43810;50.860;19.226;2024-02-26T06:04:36;97594.56;;;0.10;100.00
58018;BME280;43810;50.860;19.226;2024-02-26T06:07:02;97592.19;;;0.14;100.00
58018;BME280;43810;50.860;19.226;2024-02-26T06:09:28;97590.47;;;0.23;100.00
58018;BME280;43810;50.860;19.226;2024-02-26T06:11:54;97592.41;;;0.31;100.00
58018;BME280;43810;50.860;19.226;2024-02-26T06:14:20;97591.50;;;0.41;100.00
58018;BME280;43810;50.860;19.226;2024-02-26T06:16:47;97591.91;;;0.48;100.00
58018;BME280;43810;50.860;19.226;2024-02-26T06:19:13;97599.00;;;0.61;100.00
58018;BME280;43810;50.860;19.226;2024-02-26T06:21:39;97591.19;;;0.75;100.00
58018;BME280;43810;50.860;19.226;2024-02-26T06:24:04;97607.88;;;0.92;100.00
58018;BME280;43810;50.860;19.226;2024-02-26T06:26:30;97606.03;;;1.07;100.00
58018;BME280;43810;50.860;19.226;2024-02-26T06:28:58;97598.38;;;1.24;100.00
58018;BME280;43810;50.860;19.226;2024-02-26T06:31:24;97604.59;;;1.42;100.00
58018;BME280;43810;50.860;19.226;2024-02-26T06:33:53;97597.88;;;1.63;100.00
58018;BME280;43810;50.860;19.226;2024-02-26T06:36:19;97603.38;;;1.75;100.00
58018;BME280;43810;50.860;19.226;2024-02-26T06:38:45;97604.13;;;1.89;100.00
58018;BME280;43810;50.860;19.226;2024-02-26T06:41:11;97608.88;;;2.01;100.00
58018;BME280;43810;50.860;19.226;2024-02-26T06:43:36;97605.50;;;2.23;100.00
58018;BME280;43810;50.860;19.226;2024-02-26T06:46:03;97605.13;;;2.38;100.00
58018;BME280;43810;50.860;19.226;2024-02-26T06:48:28;97602.97;;;2.40;100.00
58018;BME280;43810;50.860;19.226;2024-02-26T06:50:54;97609.47;;;2.42;100.00
58018;BME280;43810;50.860;19.226;2024-02-26T06:53:20;97610.59;;;2.50;100.00
58018;BME280;43810;50.860;19.226;2024-02-26T06:55:46;97613.09;;;2.55;100.00
58018;BME280;43810;50.860;19.226;2024-02-26T06:58:11;97617.03;;;2.66;100.00
58018;BME280;43810;50.860;19.226;2024-02-26T07:00:37;97611.75;;;2.89;100.00
58018;BME280;43810;50.860;19.226;2024-02-26T07:03:03;97614.91;;;3.08;100.00
58018;BME280;43810;50.860;19.226;2024-02-26T07:05:29;97618.72;;;3.33;100.00
58018;BME280;43810;50.860;19.226;2024-02-26T07:07:55;97622.69;;;3.61;100.00
58018;BME280;43810;50.860;19.226;2024-02-26T07:10:21;97623.66;;;3.82;100.00
58018;BME280;43810;50.860;19.226;2024-02-26T07:12:46;97629.84;;;4.12;100.00
58018;BME280;43810;50.860;19.226;2024-02-26T07:15:12;97628.63;;;4.36;100.00
58018;BME280;43810;50.860;19.226;2024-02-26T07:17:38;97631.41;;;4.56;100.00
58018;BME280;43810;50.860;19.226;2024-02-26T07:20:08;97624.22;;;4.83;100.00
58018;BME280;43810;50.860;19.226;2024-02-26T07:22:34;97624.78;;;5.06;100.00
58018;BME280;43810;50.860;19.226;2024-02-26T07:25:00;97620.81;;;5.29;100.00
58018;BME280;43810;50.860;19.226;2024-02-26T07:27:25;97628.66;;;5.46;100.00
58018;BME280;43810;50.860;19.226;2024-02-26T07:29:52;97626.53;;;5.69;100.00
58018;BME280;43810;50.860;19.226;2024-02-26T07:32:17;97626.69;;;5.93;100.00
58018;BME280;43810;50.860;19.226;2024-02-26T07:34:43;97619.72;;;6.09;100.00
58018;BME280;43810;50.860;19.226;2024-02-26T07:37:11;97633.50;;;6.15;100.00
58018;BME280;43810;50.860;19.226;2024-02-26T07:39:37;97627.06;;;6.25;100.00
58018;BME280;43810;50.860;19.226;2024-02-26T07:42:03;97629.13;;;6.40;100.00
58018;BME280;43810;50.860;19.226;2024-02-26T07:44:29;97634.38;;;6.61;100.00
58018;BME280;43810;50.860;19.226;2024-02-26T07:46:54;97629.47;;;6.71;100.00
58018;BME280;43810;50.860;19.226;2024-02-26T07:49:20;97629.81;;;6.82;100.00
58018;BME280;43810;50.860;19.226;2024-02-26T07:51:46;97620.22;;;6.77;100.00
58018;BME280;43810;50.860;19.226;2024-02-26T07:54:11;97627.31;;;6.86;100.00
58018;BME280;43810;50.860;19.226;2024-02-26T07:56:37;97625.13;;;6.88;100.00
58018;BME280;43810;50.860;19.226;2024-02-26T07:59:03;97624.34;;;6.87;100.00
58018;BME280;43810;50.860;19.226;2024-02-26T08:01:29;97625.06;;;6.96;100.00
58018;BME280;43810;50.860;19.226;2024-02-26T08:03:55;97630.56;;;7.03;100.00
58018;BME280;43810;50.860;19.226;2024-02-26T08:06:21;97624.31;;;7.20;100.00
58018;BME280;43810;50.860;19.226;2024-02-26T08:08:47;97629.63;;;7.44;100.00
58018;BME280;43810;50.860;19.226;2024-02-26T08:11:15;97624.00;;;7.58;100.00
58018;BME280;43810;50.860;19.226;2024-02-26T08:13:44;97619.13;;;7.72;100.00
58018;BME280;43810;50.860;19.226;2024-02-26T08:16:10;97629.03;;;7.87;100.00
58018;BME280;43810;50.860;19.226;2024-02-26T08:18:36;97621.28;;;8.07;100.00
58018;BME280;43810;50.860;19.226;2024-02-26T08:21:01;97629.59;;;8.33;100.00
58018;BME280;43810;50.860;19.226;2024-02-26T08:23:28;97631.09;;;8.46;100.00
58018;BME280;43810;50.860;19.226;2024-02-26T08:25:54;97629.56;;;8.45;100.00
58018;BME280;43810;50.860;19.226;2024-02-26T08:28:20;97627.44;;;8.23;100.00
58018;BME280;43810;50.860;19.226;2024-02-26T08:30:46;97631.34;;;8.01;100.00
58018;BME280;43810;50.860;19.226;2024-02-26T08:33:12;97633.44;;;7.83;100.00
58018;BME280;43810;50.860;19.226;2024-02-26T08:35:38;97633.78;;;7.82;100.00
58018;BME280;43810;50.860;19.226;2024-02-26T08:38:04;97637.66;;;7.60;100.00
58018;BME280;43810;50.860;19.226;2024-02-26T08:40:30;97631.69;;;7.39;100.00
58018;BME280;43810;50.860;19.226;2024-02-26T08:42:56;97627.50;;;7.26;100.00
58018;BME280;43810;50.860;19.226;2024-02-26T08:45:21;97636.53;;;7.25;100.00
58018;BME280;43810;50.860;19.226;2024-02-26T08:47:48;97636.34;;;7.42;100.00
58018;BME280;43810;50.860;19.226;2024-02-26T08:50:14;97635.91;;;7.52;100.00
58018;BME280;43810;50.860;19.226;2024-02-26T08:52:40;97648.91;;;7.57;100.00
58018;BME280;43810;50.860;19.226;2024-02-26T08:55:06;97639.50;;;7.96;100.00
58018;BME280;43810;50.860;19.226;2024-02-26T08:57:34;97654.97;;;8.34;100.00
58018;BME280;43810;50.860;19.226;2024-02-26T09:00:01;97643.25;;;8.47;100.00
58018;BME280;43810;50.860;19.226;2024-02-26T09:02:27;97647.00;;;8.90;100.00
58018;BME280;43810;50.860;19.226;2024-02-26T09:04:52;97634.84;;;9.32;100.00
58018;BME280;43810;50.860;19.226;2024-02-26T09:07:21;97639.94;;;9.88;100.00
58018;BME280;43810;50.860;19.226;2024-02-26T09:09:47;97643.88;;;9.94;100.00
58018;BME280;43810;50.860;19.226;2024-02-26T09:12:13;97639.34;;;10.14;100.00
58018;BME280;43810;50.860;19.226;2024-02-26T09:14:38;97637.00;;;9.93;100.00
58018;BME280;43810;50.860;19.226;2024-02-26T09:17:04;97631.09;;;9.65;100.00
58018;BME280;43810;50.860;19.226;2024-02-26T09:19:31;97634.69;;;9.92;100.00
58018;BME280;43810;50.860;19.226;2024-02-26T09:21:57;97635.16;;;10.13;100.00
58018;BME280;43810;50.860;19.226;2024-02-26T09:24:24;97635.53;;;10.50;100.00
58018;BME280;43810;50.860;19.226;2024-02-26T09:26:50;97647.75;;;10.74;100.00
58018;BME280;43810;50.860;19.226;2024-02-26T09:29:17;97639.53;;;11.02;100.00
58018;BME280;43810;50.860;19.226;2024-02-26T09:31:43;97637.97;;;11.20;100.00
58018;BME280;43810;50.860;19.226;2024-02-26T09:34:12;97632.25;;;11.18;100.00
58018;BME280;43810;50.860;19.226;2024-02-26T09:36:38;97632.66;;;10.78;100.00
58018;BME280;43810;50.860;19.226;2024-02-26T09:39:04;97635.44;;;10.85;100.00
58018;BME280;43810;50.860;19.226;2024-02-26T09:41:30;97634.03;;;10.72;100.00
58018;BME280;43810;50.860;19.226;2024-02-26T09:43:57;97634.59;;;10.81;100.00
58018;BME280;43810;50.860;19.226;2024-02-26T09:46:25;97635.47;;;11.08;100.00
58018;BME280;43810;50.860;19.226;2024-02-26T09:48:51;97634.00;;;11.10;100.00
58018;BME280;43810;50.860;19.226;2024-02-26T09:51:17;97636.19;;;11.28;100.00
58018;BME280;43810;50.860;19.226;2024-02-26T09:53:44;97638.91;;;11.31;100.00
58018;BME280;43810;50.860;19.226;2024-02-26T09:56:12;97631.25;;;11.26;100.00
58018;BME280;43810;50.860;19.226;2024-02-26T09:58:41;97633.25;;;11.33;100.00
58018;BME280;43810;50.860;19.226;2024-02-26T10:01:11;97633.31;;;11.36;100.00
58018;BME280;43810;50.860;19.226;2024-02-26T10:03:41;97635.28;;;11.66;100.00
58018;BME280;43810;50.860;19.226;2024-02-26T10:06:08;97642.56;;;11.69;100.00
58018;BME280;43810;50.860;19.226;2024-02-26T10:08:35;97637.53;;;11.90;100.00
58018;BME280;43810;50.860;19.226;2024-02-26T10:11:01;97633.38;;;12.19;100.00
58018;BME280;43810;50.860;19.226;2024-02-26T10:13:26;97631.66;;;12.34;100.00
58018;BME280;43810;50.860;19.226;2024-02-26T10:15:52;97642.25;;;12.60;100.00
58018;BME280;43810;50.860;19.226;2024-02-26T10:18:18;97637.22;;;12.88;100.00
58018;BME280;43810;50.860;19.226;2024-02-26T10:21:01;97639.72;;;13.08;100.00
58018;BME280;43810;50.860;19.226;2024-02-26T10:23:27;97638.28;;;13.17;100.00
58018;BME280;43810;50.860;19.226;2024-02-26T10:25:56;97639.91;;;12.88;100.00
58018;BME280;43810;50.860;19.226;2024-02-26T10:28:22;97640.19;;;12.76;100.00
58018;BME280;43810;50.860;19.226;2024-02-26T10:30:48;97635.97;;;12.75;100.00
58018;BME280;43810;50.860;19.226;2024-02-26T10:33:15;97637.16;;;12.81;100.00
58018;BME280;43810;50.860;19.226;2024-02-26T10:35:48;97637.56;;;12.50;100.00
58018;BME280;43810;50.860;19.226;2024-02-26T10:38:13;97636.06;;;12.22;100.00
58018;BME280;43810;50.860;19.226;2024-02-26T10:40:42;97633.91;;;12.02;100.00
58018;BME280;43810;50.860;19.226;2024-02-26T10:43:08;97630.09;;;12.29;100.00
58018;BME280;43810;50.860;19.226;2024-02-26T10:45:34;97624.59;;;12.48;100.00
58018;BME280;43810;50.860;19.226;2024-02-26T10:48:00;97624.88;;;12.40;100.00
58018;BME280;43810;50.860;19.226;2024-02-26T10:50:26;97631.88;;;12.55;100.00
58018;BME280;43810;50.860;19.226;2024-02-26T10:52:52;97625.66;;;12.40;100.00
58018;BME280;43810;50.860;19.226;2024-02-26T10:55:21;97625.66;;;12.40;100.00
58018;BME280;43810;50.860;19.226;2024-02-26T10:57:48;97632.00;;;12.62;100.00
58018;BME280;43810;50.860;19.226;2024-02-26T11:00:17;97619.44;;;12.96;100.00
58018;BME280;43810;50.860;19.226;2024-02-26T11:02:44;97622.06;;;13.37;100.00
58018;BME280;43810;50.860;19.226;2024-02-26T11:05:12;97619.63;;;13.65;100.00
58018;BME280;43810;50.860;19.226;2024-02-26T11:07:37;97612.25;;;13.48;100.00
58018;BME280;43810;50.860;19.226;2024-02-26T11:10:05;97619.84;;;13.42;100.00
58018;BME280;43810;50.860;19.226;2024-02-26T11:12:35;97608.47;;;13.52;100.00
58018;BME280;43810;50.860;19.226;2024-02-26T11:15:04;97607.94;;;13.36;100.00
58018;BME280;43810;50.860;19.226;2024-02-26T11:17:31;97606.53;;;13.46;100.00
58018;BME280;43810;50.860;19.226;2024-02-26T11:19:59;97614.81;;;13.37;100.00
58018;BME280;43810;50.860;19.226;2024-02-26T11:22:25;97610.72;;;12.99;100.00
58018;BME280;43810;50.860;19.226;2024-02-26T11:24:56;97610.25;;;12.60;100.00
58018;BME280;43810;50.860;19.226;2024-02-26T11:27:26;97613.81;;;12.38;100.00
58018;BME280;43810;50.860;19.226;2024-02-26T11:29:56;97610.31;;;12.64;100.00
58018;BME280;43810;50.860;19.226;2024-02-26T11:32:23;97613.94;;;12.82;94.97
58018;BME280;43810;50.860;19.226;2024-02-26T11:34:49;97604.59;;;12.99;96.57
58018;BME280;43810;50.860;19.226;2024-02-26T11:37:16;97601.66;;;13.11;95.02
58018;BME280;43810;50.860;19.226;2024-02-26T11:39:43;97612.97;;;13.01;90.63
58018;BME280;43810;50.860;19.226;2024-02-26T11:42:14;97605.75;;;12.64;91.89
58018;BME280;43810;50.860;19.226;2024-02-26T11:44:41;97594.13;;;12.46;95.04
58018;BME280;43810;50.860;19.226;2024-02-26T11:47:18;97602.16;;;12.49;98.01
58018;BME280;43810;50.860;19.226;2024-02-26T11:49:44;97603.28;;;12.48;97.57
58018;BME280;43810;50.860;19.226;2024-02-26T11:52:10;97599.44;;;12.46;95.34
58018;BME280;43810;50.860;19.226;2024-02-26T11:57:30;97611.00;;;12.57;95.93
58018;BME280;43810;50.860;19.226;2024-02-26T12:05:13;97595.56;;;12.73;94.64
58018;BME280;43810;50.860;19.226;2024-02-26T12:07:46;97594.59;;;12.55;95.39
58018;BME280;43810;50.860;19.226;2024-02-26T12:13:12;97595.13;;;12.34;96.93
58018;BME280;43810;50.860;19.226;2024-02-26T12:15:41;97596.59;;;12.32;98.00
58018;BME280;43810;50.860;19.226;2024-02-26T12:18:08;97589.75;;;12.64;95.26
58018;BME280;43810;50.860;19.226;2024-02-26T12:20:38;97589.19;;;12.81;93.13
58018;BME280;43810;50.860;19.226;2024-02-26T12:23:04;97590.09;;;12.96;93.16
58018;BME280;43810;50.860;19.226;2024-02-26T12:25:31;97590.31;;;13.21;92.24
58018;BME280;43810;50.860;19.226;2024-02-26T12:27:58;97580.59;;;13.46;90.71
58018;BME280;43810;50.860;19.226;2024-02-26T12:30:25;97586.84;;;13.72;86.62
58018;BME280;43810;50.860;19.226;2024-02-26T12:32:52;97586.97;;;13.93;84.88
58018;BME280;43810;50.860;19.226;2024-02-26T12:35:23;97593.91;;;14.01;85.72
58018;BME280;43810;50.860;19.226;2024-02-26T12:37:50;97584.31;;;13.93;85.28
58018;BME280;43810;50.860;19.226;2024-02-26T12:40:17;97584.69;;;13.88;85.12
58018;BME280;43810;50.860;19.226;2024-02-26T12:42:43;97587.69;;;13.79;85.40
58018;BME280;43810;50.860;19.226;2024-02-26T12:45:10;97580.34;;;13.65;83.36
58018;BME280;43810;50.860;19.226;2024-02-26T12:47:43;97586.13;;;13.20;86.14
58018;BME280;43810;50.860;19.226;2024-02-26T12:50:11;97591.84;;;13.22;87.41
58018;BME280;43810;50.860;19.226;2024-02-26T12:52:43;97597.13;;;13.15;89.17
58018;BME280;43810;50.860;19.226;2024-02-26T12:55:11;97594.13;;;13.20;90.08